Time;durP1;ratioP1;P1;durP2;ratioP2;P2;SDS_P1;SDS_P2;PMS_P1;PMS_P2;Temp;Humidity;BMP_temperature;BMP_pressure;BME280_temperature;BME280_humidity;BME280_pressure;Samples;Min_cycle;Max_cycle;Signal;HPM_P1;HPM_P2
2022/05/25 00:02:10;;;;;;;20.77;17.07;;;;;;;;;;5000615;28;20243;-61
2022/05/25 00:04:36;;;;;;;23.23;17.30;;;;;;;;;;4979103;28;20590;-61
2022/05/25 00:07:03;;;;;;;23.23;17.63;;;;;;;;;;4999962;28;20227;-61
2022/05/25 00:09:30;;;;;;;21.20;17.83;;;;;;;;;;4987054;28;20230;-61
2022/05/25 00:11:57;;;;;;;18.93;15.93;;;;;;;;;;5000281;28;20235;-64
2022/05/25 00:14:24;;;;;;;17.00;15.00;;;;;;;;;;5001869;28;20230;-61
2022/05/25 00:16:50;;;;;;;18.23;14.97;;;;;;;;;;4999704;28;20227;-61
2022/05/25 00:22:03;;;;;;;16.33;13.67;;;;;;;;;;5018852;28;20234;-62
2022/05/25 00:24:29;;;;;;;17.93;14.13;;;;;;;;;;5021551;28;20238;-61
2022/05/25 00:26:56;;;;;;;16.90;14.93;;;;;;;;;;5019718;28;20302;-61
2022/05/25 00:29:22;;;;;;;15.30;13.43;;;;;;;;;;5024937;28;20349;-61
2022/05/25 00:31:49;;;;;;;17.50;13.80;;;;;;;;;;5010217;28;20327;-61
2022/05/25 00:34:33;;;;;;;17.63;14.57;;;;;;;;;;5015278;28;20802;-61
2022/05/25 00:37:00;;;;;;;16.30;14.00;;;;;;;;;;5005950;28;20246;-61
2022/05/25 00:39:27;;;;;;;15.50;13.90;;;;;;;;;;5003754;28;20246;-61
2022/05/25 00:41:55;;;;;;;15.27;13.20;;;;;;;;;;5005358;28;20235;-61
2022/05/25 00:44:21;;;;;;;17.97;13.73;;;;;;;;;;5005287;28;20239;-61
2022/05/25 00:46:48;;;;;;;14.07;12.57;;;;;;;;;;5025042;28;20334;-60
2022/05/25 00:49:26;;;;;;;15.53;13.00;;;;;;;;;;5021023;28;20713;-61
2022/05/25 00:51:54;;;;;;;15.17;13.37;;;;;;;;;;5023625;28;20246;-61
2022/05/25 00:54:28;;;;;;;17.00;13.33;;;;;;;;;;5023647;28;20273;-62
2022/05/25 00:56:55;;;;;;;16.37;13.93;;;;;;;;;;5022192;28;20253;-61
2022/05/25 00:59:24;;;;;;;14.17;12.67;;;;;;;;;;5009711;28;20328;-61
2022/05/25 01:01:51;;;;;;;15.73;13.03;;;;;;;;;;4990709;28;20716;-61
2022/05/25 01:04:18;;;;;;;16.63;14.47;;;;;;;;;;5025568;28;20233;-61
2022/05/25 01:06:55;;;;;;;14.80;13.30;;;;;;;;;;5022638;28;20617;-61
2022/05/25 01:09:25;;;;;;;16.03;13.60;;;;;;;;;;5005534;28;20237;-61
2022/05/25 01:12:00;;;;;;;15.90;13.20;;;;;;;;;;5021511;28;20230;-61
2022/05/25 01:14:40;;;;;;;17.37;13.73;;;;;;;;;;5022922;28;20316;-61
2022/05/25 01:17:10;;;;;;;15.00;13.40;;;;;;;;;;5005471;28;20309;-61
2022/05/25 01:20:13;;;;;;;14.03;12.53;;;;;;;;;;5013416;28;20712;-61
2022/05/25 01:22:58;;;;;;;13.67;12.37;;;;;;;;;;5005242;28;20246;-61
2022/05/25 01:25:36;;;;;;;15.47;13.87;;;;;;;;;;5005234;28;20239;-62
2022/05/25 01:28:06;;;;;;;16.73;14.93;;;;;;;;;;5002564;28;20364;-61
2022/05/25 01:30:34;;;;;;;17.47;15.07;;;;;;;;;;5001437;28;20239;-60
2022/05/25 01:33:03;;;;;;;19.20;15.80;;;;;;;;;;5003795;28;20227;-61
2022/05/25 01:35:33;;;;;;;20.40;17.47;;;;;;;;;;4988227;28;20256;-61
2022/05/25 01:37:59;;;;;;;19.00;15.63;;;;;;;;;;5004684;28;20353;-60
2022/05/25 01:40:26;;;;;;;17.57;15.67;;;;;;;;;;5003320;28;20235;-61
2022/05/25 01:42:55;;;;;;;18.83;15.87;;;;;;;;;;5004597;28;20227;-61
2022/05/25 01:45:22;;;;;;;19.97;17.67;;;;;;;;;;5010293;28;20692;-61
2022/05/25 01:47:49;;;;;;;19.57;16.77;;;;;;;;;;5023975;28;20261;-61
2022/05/25 01:50:17;;;;;;;19.63;17.00;;;;;;;;;;4991325;28;20709;-61
2022/05/25 01:52:49;;;;;;;20.10;17.17;;;;;;;;;;4978182;28;20578;-64
2022/05/25 01:55:20;;;;;;;21.63;17.93;;;;;;;;;;4977216;28;20246;-62
2022/05/25 01:57:47;;;;;;;22.67;18.63;;;;;;;;;;4976561;28;20235;-61
2022/05/25 02:00:26;;;;;;;22.03;19.57;;;;;;;;;;4976866;28;20591;-61
2022/05/25 02:05:40;;;;;;;22.57;19.27;;;;;;;;;;5003455;28;20251;-61
2022/05/25 02:08:42;;;;;;;23.53;19.90;;;;;;;;;;4976905;28;20238;-61
2022/05/25 02:11:15;;;;;;;23.23;19.23;;;;;;;;;;4960217;28;20719;-61
2022/05/25 02:13:54;;;;;;;22.80;19.90;;;;;;;;;;4978371;28;20716;-61
2022/05/25 02:16:33;;;;;;;26.33;20.90;;;;;;;;;;4977622;28;20301;-61
2022/05/25 02:19:11;;;;;;;28.63;22.30;;;;;;;;;;5002146;28;20219;-61
2022/05/25 02:21:56;;;;;;;24.33;20.17;;;;;;;;;;4980608;28;20226;-61
2022/05/25 02:24:25;;;;;;;23.97;20.10;;;;;;;;;;4982042;28;20365;-62
2022/05/25 02:26:53;;;;;;;21.80;19.07;;;;;;;;;;4986147;28;20717;-61
2022/05/25 02:29:21;;;;;;;22.93;19.47;;;;;;;;;;5001865;28;20238;-61
2022/05/25 02:31:59;;;;;;;21.33;18.83;;;;;;;;;;4984251;28;20227;-61
2022/05/25 02:34:26;;;;;;;22.63;18.80;;;;;;;;;;4984874;28;20233;-61
2022/05/25 02:36:53;;;;;;;20.90;17.97;;;;;;;;;;4986019;28;20238;-61
2022/05/25 02:39:20;;;;;;;22.47;17.73;;;;;;;;;;4982898;28;23780;-61
2022/05/25 02:41:51;;;;;;;21.27;18.67;;;;;;;;;;4995142;28;20235;-61
2022/05/25 02:44:18;;;;;;;21.93;17.90;;;;;;;;;;5019869;28;20245;-61
2022/05/25 02:46:44;;;;;;;22.67;20.00;;;;;;;;;;5022756;28;20304;-60
2022/05/25 02:49:11;;;;;;;22.13;19.00;;;;;;;;;;5019510;28;20716;-60
2022/05/25 02:51:38;;;;;;;26.93;21.50;;;;;;;;;;5022046;28;20234;-61
2022/05/25 02:54:05;;;;;;;24.13;20.30;;;;;;;;;;5019809;28;20215;-60
2022/05/25 02:56:31;;;;;;;26.87;21.23;;;;;;;;;;4992298;28;20710;-61
2022/05/25 02:58:58;;;;;;;28.57;23.37;;;;;;;;;;5000893;28;20297;-60
2022/05/25 03:01:42;;;;;;;29.17;22.33;;;;;;;;;;5001956;28;20306;-61
2022/05/25 03:04:09;;;;;;;38.00;25.70;;;;;;;;;;5004405;28;20238;-62
2022/05/25 03:06:53;;;;;;;34.40;25.93;;;;;;;;;;4989930;28;20285;-60
2022/05/25 03:09:20;;;;;;;37.60;26.03;;;;;;;;;;5004106;28;20298;-61
2022/05/25 03:11:47;;;;;;;35.53;26.10;;;;;;;;;;5004967;28;20219;-61
2022/05/25 03:14:14;;;;;;;32.10;25.07;;;;;;;;;;5004664;28;20234;-60
2022/05/25 03:16:40;;;;;;;32.37;23.70;;;;;;;;;;5021477;28;20937;-61
2022/05/25 03:19:07;;;;;;;35.70;24.43;;;;;;;;;;5020330;28;20226;-61
2022/05/25 03:21:34;;;;;;;34.20;25.17;;;;;;;;;;5019574;28;20245;-61
2022/05/25 03:24:00;;;;;;;37.27;25.63;;;;;;;;;;5000170;28;20230;-61
2022/05/25 03:26:27;;;;;;;35.33;25.43;;;;;;;;;;5015450;28;20250;-61
2022/05/25 03:28:53;;;;;;;44.10;26.13;;;;;;;;;;5000064;28;20236;-61
2022/05/25 03:31:20;;;;;;;40.90;27.87;;;;;;;;;;4992511;28;29392;-61
2022/05/25 03:33:47;;;;;;;39.57;27.00;;;;;;;;;;5007152;28;20219;-61
2022/05/25 03:36:14;;;;;;;40.30;27.17;;;;;;;;;;5017113;28;20298;-61
2022/05/25 03:38:40;;;;;;;41.50;27.07;;;;;;;;;;5007874;28;20261;-61
2022/05/25 03:41:08;;;;;;;39.67;27.10;;;;;;;;;;4999058;28;20270;-62
2022/05/25 03:43:35;;;;;;;41.77;27.77;;;;;;;;;;5014727;28;31566;-61
2022/05/25 03:46:02;;;;;;;39.47;27.53;;;;;;;;;;4998144;28;20278;-65
2022/05/25 03:48:28;;;;;;;40.77;28.07;;;;;;;;;;4983618;28;20238;-62
2022/05/25 03:50:55;;;;;;;43.37;28.03;;;;;;;;;;5001860;28;20237;-65
2022/05/25 03:53:22;;;;;;;42.03;28.00;;;;;;;;;;5003304;28;20694;-63
2022/05/25 03:55:48;;;;;;;42.87;27.93;;;;;;;;;;4985785;28;21246;-62
2022/05/25 03:58:15;;;;;;;37.00;26.63;;;;;;;;;;5003755;28;20238;-61
2022/05/25 04:00:42;;;;;;;38.67;24.50;;;;;;;;;;5001715;28;20238;-61
2022/05/25 04:03:11;;;;;;;33.77;21.63;;;;;;;;;;5008703;28;20226;-61
2022/05/25 04:05:37;;;;;;;36.63;22.07;;;;;;;;;;5002964;28;20234;-62
2022/05/25 04:08:04;;;;;;;32.80;21.03;;;;;;;;;;5004804;28;20238;-61
2022/05/25 04:10:31;;;;;;;29.27;18.90;;;;;;;;;;5004541;28;20242;-61
2022/05/25 04:12:58;;;;;;;29.47;18.60;;;;;;;;;;5006826;28;20227;-61
2022/05/25 04:15:26;;;;;;;26.67;18.97;;;;;;;;;;5008429;28;20239;-61
2022/05/25 04:17:53;;;;;;;26.03;16.53;;;;;;;;;;5025136;28;21193;-60
2022/05/25 04:20:20;;;;;;;22.60;16.47;;;;;;;;;;5019123;28;20605;-60
2022/05/25 04:22:47;;;;;;;21.70;15.93;;;;;;;;;;5024684;28;20222;-60
2022/05/25 04:25:16;;;;;;;22.77;15.47;;;;;;;;;;5017811;28;20233;-61
2022/05/25 04:27:43;;;;;;;23.00;15.93;;;;;;;;;;5003991;28;20227;-61
2022/05/25 04:30:27;;;;;;;21.93;15.63;;;;;;;;;;5004634;28;20231;-61
2022/05/25 04:32:54;;;;;;;21.27;16.07;;;;;;;;;;5005395;28;20690;-61
2022/05/25 04:35:38;;;;;;;22.47;16.13;;;;;;;;;;5001581;28;22985;-61
2022/05/25 04:38:06;;;;;;;22.87;15.97;;;;;;;;;;5024242;28;20240;-61
2022/05/25 04:40:51;;;;;;;21.80;14.57;;;;;;;;;;5021886;28;20279;-61
2022/05/25 04:43:23;;;;;;;19.33;14.27;;;;;;;;;;5021508;28;20226;-61
2022/05/25 04:45:50;;;;;;;17.93;13.33;;;;;;;;;;5025134;28;21074;-62
2022/05/25 04:48:20;;;;;;;20.73;12.97;;;;;;;;;;5002989;28;20235;-61
2022/05/25 04:50:47;;;;;;;15.87;12.60;;;;;;;;;;5007771;28;20761;-61
2022/05/25 04:53:14;;;;;;;14.77;11.67;;;;;;;;;;5021201;28;20230;-61
2022/05/25 04:58:27;;;;;;;13.50;11.43;;;;;;;;;;4980409;28;20235;-61
2022/05/25 05:00:53;;;;;;;13.70;10.97;;;;;;;;;;4987758;28;20266;-61
2022/05/25 05:03:20;;;;;;;12.00;10.07;;;;;;;;;;5000691;28;20227;-61
2022/05/25 05:05:47;;;;;;;11.37;9.93;;;;;;;;;;5002321;28;20307;-61
2022/05/25 05:08:14;;;;;;;11.07;9.97;;;;;;;;;;4997200;28;20234;-61
2022/05/25 05:10:41;;;;;;;13.03;9.20;;;;;;;;;;5001406;28;20769;-61
2022/05/25 05:13:07;;;;;;;11.60;8.63;;;;;;;;;;4985067;28;20235;-62
2022/05/25 05:15:34;;;;;;;10.13;8.47;;;;;;;;;;4983707;28;20243;-61
2022/05/25 05:18:01;;;;;;;10.10;7.63;;;;;;;;;;4981252;28;24747;-61
2022/05/25 05:21:04;;;;;;;8.37;7.57;;;;;;;;;;4965381;28;20246;-62
2022/05/25 05:23:31;;;;;;;9.60;8.30;;;;;;;;;;4999035;28;20239;-61
2022/05/25 05:25:58;;;;;;;8.60;7.70;;;;;;;;;;4981694;28;20306;-61
2022/05/25 05:28:28;;;;;;;8.43;7.43;;;;;;;;;;4984144;28;20234;-61
2022/05/25 05:30:55;;;;;;;8.13;7.13;;;;;;;;;;4981915;28;20270;-62
2022/05/25 05:33:22;;;;;;;8.83;7.27;;;;;;;;;;4983591;28;20284;-61
2022/05/25 05:36:04;;;;;;;9.77;7.43;;;;;;;;;;4964836;28;20235;-61
2022/05/25 05:38:31;;;;;;;8.73;7.13;;;;;;;;;;4981850;28;20343;-61
2022/05/25 05:40:58;;;;;;;8.10;6.67;;;;;;;;;;4998700;28;20228;-61
2022/05/25 05:43:25;;;;;;;7.90;6.27;;;;;;;;;;5015554;28;20317;-61
2022/05/25 05:45:51;;;;;;;7.67;6.10;;;;;;;;;;4987030;28;20227;-62
2022/05/25 05:48:19;;;;;;;7.03;6.00;;;;;;;;;;4981959;28;20236;-61
2022/05/25 05:50:46;;;;;;;10.10;6.03;;;;;;;;;;4959226;28;20583;-61
2022/05/25 05:53:13;;;;;;;6.87;5.93;;;;;;;;;;4981959;28;20255;-62
2022/05/25 05:55:40;;;;;;;8.40;6.23;;;;;;;;;;4982487;28;23545;-61
2022/05/25 05:58:07;;;;;;;6.80;5.43;;;;;;;;;;4998395;28;20234;-61
2022/05/25 06:00:34;;;;;;;6.20;5.60;;;;;;;;;;5002554;28;20235;-61
2022/05/25 06:03:01;;;;;;;7.50;5.87;;;;;;;;;;5000270;28;20326;-62
2022/05/25 06:05:46;;;;;;;7.30;5.83;;;;;;;;;;5002363;28;20663;-61
2022/05/25 06:08:23;;;;;;;8.53;5.47;;;;;;;;;;4999919;28;20326;-62
2022/05/25 06:10:50;;;;;;;7.17;5.43;;;;;;;;;;5001372;28;20227;-61
2022/05/25 06:13:16;;;;;;;5.37;4.87;;;;;;;;;;4986412;28;21253;-61
2022/05/25 06:21:18;;;;;;;6.43;4.77;;;;;;;;;;5002047;28;20239;-62
2022/05/25 06:23:45;;;;;;;6.00;5.40;;;;;;;;;;5000457;28;20311;-62
2022/05/25 06:26:14;;;;;;;6.07;5.30;;;;;;;;;;5001140;28;20267;-61
2022/05/25 06:28:42;;;;;;;5.13;4.63;;;;;;;;;;5000730;28;20219;-61
2022/05/25 06:31:08;;;;;;;5.70;5.10;;;;;;;;;;5002667;28;20289;-61
2022/05/25 06:33:37;;;;;;;5.60;5.10;;;;;;;;;;4999717;28;20242;-61
2022/05/25 06:36:16;;;;;;;5.60;4.83;;;;;;;;;;5032223;28;20597;-62
2022/05/25 06:38:44;;;;;;;8.20;5.37;;;;;;;;;;5021299;28;20764;-61
2022/05/25 06:41:11;;;;;;;5.63;5.13;;;;;;;;;;5019901;28;20579;-61
2022/05/25 06:43:38;;;;;;;6.50;4.83;;;;;;;;;;5022071;28;20237;-61
2022/05/25 06:46:05;;;;;;;6.40;5.60;;;;;;;;;;5007119;28;20272;-61
2022/05/25 06:48:46;;;;;;;6.10;5.50;;;;;;;;;;4991348;28;24811;-61
2022/05/25 06:51:13;;;;;;;6.30;5.70;;;;;;;;;;5001717;28;20269;-61
2022/05/25 06:53:40;;;;;;;5.67;5.10;;;;;;;;;;5004845;28;21042;-61
2022/05/25 06:56:07;;;;;;;6.50;5.00;;;;;;;;;;5002503;28;20300;-61
2022/05/25 06:58:33;;;;;;;4.83;4.33;;;;;;;;;;5004508;28;20314;-61
2022/05/25 07:01:00;;;;;;;4.80;4.00;;;;;;;;;;5004499;28;20246;-60
2022/05/25 07:03:27;;;;;;;4.47;4.07;;;;;;;;;;5005602;28;20342;-61
2022/05/25 07:05:54;;;;;;;4.53;4.10;;;;;;;;;;5002310;28;20704;-61
2022/05/25 07:08:21;;;;;;;4.80;4.23;;;;;;;;;;5002289;28;20230;-61
2022/05/25 07:10:48;;;;;;;5.03;4.60;;;;;;;;;;5000224;28;20273;-61
2022/05/25 07:13:15;;;;;;;5.53;4.33;;;;;;;;;;5005106;28;20225;-61
2022/05/25 07:15:42;;;;;;;5.33;4.73;;;;;;;;;;4983479;28;20234;-61
2022/05/25 07:18:10;;;;;;;5.87;4.60;;;;;;;;;;4984029;28;20251;-61
2022/05/25 07:20:36;;;;;;;7.30;5.07;;;;;;;;;;4983291;28;20230;-61
2022/05/25 07:23:03;;;;;;;5.93;4.87;;;;;;;;;;5004580;28;20233;-61
2022/05/25 07:25:30;;;;;;;4.67;4.27;;;;;;;;;;4985231;28;20226;-61
2022/05/25 07:27:58;;;;;;;5.27;4.77;;;;;;;;;;4988159;28;20235;-61
2022/05/25 07:30:26;;;;;;;5.10;4.60;;;;;;;;;;5008397;28;20288;-61
2022/05/25 07:32:52;;;;;;;4.67;4.27;;;;;;;;;;4995972;28;20957;-61
2022/05/25 07:35:19;;;;;;;5.03;4.53;;;;;;;;;;4986022;28;20215;-61
2022/05/25 07:37:47;;;;;;;5.93;4.50;;;;;;;;;;4986211;28;20230;-62
2022/05/25 07:40:22;;;;;;;6.10;4.23;;;;;;;;;;5002834;28;20230;-61
2022/05/25 07:42:49;;;;;;;5.33;4.60;;;;;;;;;;5001612;28;20246;-61
2022/05/25 07:45:17;;;;;;;5.27;4.40;;;;;;;;;;5003913;28;20238;-61
2022/05/25 07:47:43;;;;;;;4.63;4.23;;;;;;;;;;5027404;28;20229;-61
2022/05/25 07:50:10;;;;;;;5.37;4.33;;;;;;;;;;5017692;28;20231;-60
2022/05/25 07:52:38;;;;;;;4.80;4.37;;;;;;;;;;5018824;28;20245;-65
2022/05/25 07:55:05;;;;;;;6.07;4.20;;;;;;;;;;5005367;28;20818;-62
2022/05/25 07:57:32;;;;;;;5.17;4.67;;;;;;;;;;4989782;28;20319;-62
2022/05/25 08:00:01;;;;;;;5.57;4.63;;;;;;;;;;4994266;28;21214;-61
2022/05/25 08:08:02;;;;;;;7.50;4.70;;;;;;;;;;4994659;28;21088;-62
2022/05/25 08:10:28;;;;;;;5.63;4.33;;;;;;;;;;4966321;28;20234;-61
2022/05/25 08:12:55;;;;;;;4.83;4.00;;;;;;;;;;4993476;28;21510;-61
2022/05/25 08:15:22;;;;;;;5.20;4.17;;;;;;;;;;5012286;28;20230;-61
2022/05/25 08:17:49;;;;;;;5.27;4.47;;;;;;;;;;5010218;28;20346;-62
2022/05/25 08:20:17;;;;;;;6.23;5.43;;;;;;;;;;4996752;28;20626;-62
2022/05/25 08:22:43;;;;;;;5.40;4.80;;;;;;;;;;5009586;28;20230;-63
2022/05/25 08:25:30;;;;;;;5.47;4.97;;;;;;;;;;5010928;28;20260;-62
2022/05/25 08:27:57;;;;;;;6.97;4.93;;;;;;;;;;5019168;28;20326;-64
2022/05/25 08:30:24;;;;;;;7.47;5.07;;;;;;;;;;5010266;28;20219;-62
2022/05/25 08:32:51;;;;;;;6.03;5.23;;;;;;;;;;4991821;28;36546;-62
2022/05/25 08:35:18;;;;;;;5.37;4.70;;;;;;;;;;4999776;28;20240;-63
2022/05/25 08:37:45;;;;;;;6.40;4.80;;;;;;;;;;5012691;28;20307;-62
2022/05/25 08:40:12;;;;;;;6.77;4.40;;;;;;;;;;5015296;28;20362;-63
2022/05/25 08:42:45;;;;;;;7.27;4.00;;;;;;;;;;4996362;28;20222;-61
2022/05/25 08:45:12;;;;;;;4.67;4.17;;;;;;;;;;5004142;28;20292;-62
2022/05/25 08:47:42;;;;;;;4.33;3.57;;;;;;;;;;5018583;28;20260;-61
2022/05/25 08:50:09;;;;;;;5.63;4.03;;;;;;;;;;5012959;28;20665;-63
2022/05/25 08:52:36;;;;;;;5.43;4.13;;;;;;;;;;5014272;28;20230;-62
2022/05/25 08:55:04;;;;;;;4.30;3.83;;;;;;;;;;4981520;28;20226;-63
2022/05/25 08:57:40;;;;;;;4.70;3.90;;;;;;;;;;5020136;28;20613;-62
2022/05/25 09:00:08;;;;;;;5.37;4.33;;;;;;;;;;4993634;28;20312;-62
2022/05/25 09:02:45;;;;;;;5.10;4.60;;;;;;;;;;5026765;28;20380;-62
2022/05/25 09:05:34;;;;;;;4.97;4.47;;;;;;;;;;5021337;28;20226;-62
2022/05/25 09:08:03;;;;;;;6.40;4.83;;;;;;;;;;5018027;28;20235;-62
2022/05/25 09:10:55;;;;;;;4.90;4.27;;;;;;;;;;5021174;28;20214;-62
2022/05/25 09:13:45;;;;;;;4.90;4.50;;;;;;;;;;4995192;28;217132;-62
2022/05/25 09:16:18;;;;;;;7.17;4.80;;;;;;;;;;5012790;28;28703;-62
2022/05/25 09:18:51;;;;;;;5.90;4.63;;;;;;;;;;5002200;28;20884;-63
2022/05/25 09:21:20;;;;;;;5.67;5.03;;;;;;;;;;5021617;28;20246;-61
2022/05/25 09:23:46;;;;;;;5.40;4.80;;;;;;;;;;5016556;28;20340;-61
2022/05/25 09:26:13;;;;;;;6.73;5.40;;;;;;;;;;5021988;28;20256;-60
2022/05/25 09:28:42;;;;;;;6.87;6.10;;;;;;;;;;5022477;28;20708;-60
2022/05/25 09:31:11;;;;;;;5.93;5.33;;;;;;;;;;5002838;28;20307;-60
2022/05/25 09:33:43;;;;;;;7.03;5.20;;;;;;;;;;5009106;28;20225;-61
2022/05/25 09:36:09;;;;;;;5.30;4.80;;;;;;;;;;4999352;28;20221;-61
2022/05/25 09:38:41;;;;;;;6.00;5.07;;;;;;;;;;5008797;28;20289;-61
2022/05/25 09:41:09;;;;;;;7.97;5.30;;;;;;;;;;5016223;28;20242;-62
2022/05/25 09:43:36;;;;;;;7.03;5.43;;;;;;;;;;5019102;28;20233;-64
2022/05/25 09:46:10;;;;;;;5.30;4.80;;;;;;;;;;5023094;28;20246;-62
2022/05/25 09:48:46;;;;;;;5.60;4.50;;;;;;;;;;5014773;28;42761;-61
2022/05/25 09:51:33;;;;;;;5.97;4.57;;;;;;;;;;4998553;28;21254;-61
2022/05/25 09:54:20;;;;;;;5.87;5.27;;;;;;;;;;5016920;28;20233;-61
2022/05/25 09:56:51;;;;;;;6.80;5.40;;;;;;;;;;5002159;28;20230;-61
2022/05/25 09:59:39;;;;;;;6.37;5.77;;;;;;;;;;5004377;28;20241;-60
2022/05/25 10:02:24;;;;;;;7.47;6.10;;;;;;;;;;4999581;28;20222;-61
2022/05/25 10:04:52;;;;;;;6.67;5.47;;;;;;;;;;5003706;28;20234;-61
2022/05/25 10:07:20;;;;;;;6.00;5.40;;;;;;;;;;4984860;28;33328;-61
2022/05/25 10:09:48;;;;;;;6.00;5.40;;;;;;;;;;5004001;28;21214;-60
2022/05/25 10:12:22;;;;;;;7.67;6.03;;;;;;;;;;4981870;28;20311;-61
2022/05/25 10:14:57;;;;;;;6.70;6.03;;;;;;;;;;5017459;28;20232;-61
2022/05/25 10:17:31;;;;;;;7.10;5.80;;;;;;;;;;4985056;28;20969;-60
2022/05/25 10:19:58;;;;;;;6.30;5.67;;;;;;;;;;4995242;28;20229;-60
2022/05/25 10:22:41;;;;;;;7.53;6.13;;;;;;;;;;5001773;28;20337;-62
2022/05/25 10:25:08;;;;;;;6.93;5.80;;;;;;;;;;4998421;28;20531;-61
2022/05/25 10:27:53;;;;;;;6.40;5.70;;;;;;;;;;5022143;28;20231;-61
2022/05/25 10:39:32;;;;;;;6.10;5.50;;;;;;;;;;5001839;28;20281;-60
2022/05/25 10:42:02;;;;;;;6.33;5.70;;;;;;;;;;4998902;28;20567;-61
2022/05/25 10:44:36;;;;;;;8.47;5.87;;;;;;;;;;4999609;28;20645;-61
2022/05/25 10:47:03;;;;;;;6.63;5.50;;;;;;;;;;5004028;28;20264;-61
2022/05/25 10:49:48;;;;;;;6.70;5.70;;;;;;;;;;5002960;28;20313;-60
2022/05/25 10:52:18;;;;;;;7.17;5.40;;;;;;;;;;5011161;28;20568;-62
2022/05/25 10:55:05;;;;;;;6.77;5.80;;;;;;;;;;5018354;28;20284;-60
2022/05/25 10:57:50;;;;;;;7.23;5.50;;;;;;;;;;5001866;28;20284;-61
2022/05/25 11:00:45;;;;;;;6.77;5.77;;;;;;;;;;5019353;28;20218;-61
2022/05/25 11:03:32;;;;;;;6.77;5.57;;;;;;;;;;5002686;28;20680;-62
2022/05/25 11:06:08;;;;;;;7.47;5.90;;;;;;;;;;5033684;28;20244;-61
2022/05/25 11:08:54;;;;;;;7.47;5.80;;;;;;;;;;5028880;28;26285;-61
2022/05/25 11:11:30;;;;;;;6.00;5.40;;;;;;;;;;5021302;28;20731;-61
2022/05/25 11:14:03;;;;;;;7.90;6.77;;;;;;;;;;5007936;28;20784;-62
2022/05/25 11:16:34;;;;;;;7.90;7.00;;;;;;;;;;4986151;28;250933;-61
2022/05/25 11:19:20;;;;;;;7.37;6.60;;;;;;;;;;5004040;28;20226;-61
2022/05/25 11:22:05;;;;;;;7.17;6.37;;;;;;;;;;4996536;28;20717;-61
2022/05/25 11:24:32;;;;;;;9.53;7.10;;;;;;;;;;5013720;28;20227;-60
2022/05/25 11:27:16;;;;;;;8.03;6.50;;;;;;;;;;4983787;28;20222;-62
2022/05/25 11:29:58;;;;;;;8.33;6.63;;;;;;;;;;4997901;28;20237;-61
2022/05/25 11:32:48;;;;;;;6.43;5.67;;;;;;;;;;5023284;28;20225;-60
2022/05/25 11:35:21;;;;;;;9.43;7.03;;;;;;;;;;5025447;28;20662;-60
2022/05/25 11:37:59;;;;;;;8.47;7.07;;;;;;;;;;4996885;28;20245;-60
2022/05/25 11:40:35;;;;;;;9.40;6.70;;;;;;;;;;4999766;28;20313;-61
2022/05/25 11:43:05;;;;;;;9.57;6.17;;;;;;;;;;5030095;28;20311;-61
2022/05/25 11:45:41;;;;;;;7.23;6.53;;;;;;;;;;5035217;28;20235;-61
2022/05/25 11:48:21;;;;;;;7.87;6.00;;;;;;;;;;5011512;28;20415;-60
2022/05/25 11:50:54;;;;;;;6.43;5.27;;;;;;;;;;4996118;28;20248;-60
2022/05/25 11:53:21;;;;;;;5.90;4.77;;;;;;;;;;5013614;28;20265;-61
2022/05/25 11:56:04;;;;;;;6.90;5.90;;;;;;;;;;5016291;28;20314;-60
2022/05/25 11:58:49;;;;;;;9.43;6.43;;;;;;;;;;5008899;28;21373;-61
2022/05/25 12:01:19;;;;;;;7.97;6.23;;;;;;;;;;5006269;28;20231;-60
2022/05/25 12:04:05;;;;;;;6.57;4.80;;;;;;;;;;4997413;28;20241;-59
2022/05/25 12:06:32;;;;;;;6.17;4.93;;;;;;;;;;5020566;28;20230;-60
2022/05/25 12:09:02;;;;;;;7.07;5.20;;;;;;;;;;5011008;28;20235;-59
2022/05/25 12:11:40;;;;;;;7.00;5.93;;;;;;;;;;4999937;28;20257;-60
2022/05/25 12:14:25;;;;;;;7.97;4.93;;;;;;;;;;5008865;28;20237;-59
2022/05/25 12:16:52;;;;;;;6.73;5.47;;;;;;;;;;5029427;28;20230;-60
2022/05/25 12:19:23;;;;;;;6.60;5.40;;;;;;;;;;5014104;28;32342;-60
2022/05/25 12:21:51;;;;;;;5.77;5.07;;;;;;;;;;5013401;28;21060;-59
2022/05/25 12:24:22;;;;;;;4.80;4.30;;;;;;;;;;5005996;28;20600;-61
2022/05/25 12:26:48;;;;;;;6.80;4.50;;;;;;;;;;5004621;28;20237;-60
2022/05/25 12:29:21;;;;;;;5.10;4.60;;;;;;;;;;5000202;28;20248;-60
2022/05/25 12:31:52;;;;;;;4.33;3.93;;;;;;;;;;5016030;28;20325;-59
2022/05/25 12:34:40;;;;;;;5.47;4.70;;;;;;;;;;5001649;28;20238;-60
2022/05/25 12:37:10;;;;;;;4.90;4.40;;;;;;;;;;5033594;28;47466;-50
2022/05/25 12:39:42;;;;;;;8.00;4.90;;;;;;;;;;5000047;28;20577;-52
2022/05/25 12:42:25;;;;;;;7.23;4.90;;;;;;;;;;5025149;28;20360;-61
2022/05/25 12:50:40;;;;;;;5.47;4.27;;;;;;;;;;5017586;28;20308;-63
2022/05/25 12:53:26;;;;;;;4.63;4.23;;;;;;;;;;5018118;28;20215;-65
2022/05/25 12:55:53;;;;;;;6.80;4.23;;;;;;;;;;5005724;28;20273;-66
2022/05/25 12:58:43;;;;;;;5.80;4.20;;;;;;;;;;5021163;28;20242;-62
2022/05/25 13:01:13;;;;;;;4.90;4.40;;;;;;;;;;5008476;28;20222;-63
2022/05/25 13:03:46;;;;;;;5.53;4.33;;;;;;;;;;5014356;28;20603;-63
2022/05/25 13:06:15;;;;;;;4.10;3.67;;;;;;;;;;5012667;28;20254;-62
2022/05/25 13:08:51;;;;;;;7.07;4.37;;;;;;;;;;5017192;28;20233;-63
2022/05/25 13:11:27;;;;;;;5.10;4.00;;;;;;;;;;5023400;28;20226;-62
2022/05/25 13:13:54;;;;;;;5.30;4.60;;;;;;;;;;5020644;28;20293;-62
2022/05/25 13:16:40;;;;;;;5.37;4.40;;;;;;;;;;4993192;28;20234;-62
2022/05/25 13:19:14;;;;;;;4.60;3.60;;;;;;;;;;5022911;28;20230;-61
2022/05/25 13:21:42;;;;;;;4.13;3.70;;;;;;;;;;5017370;28;20257;-61
2022/05/25 13:24:09;;;;;;;4.43;3.27;;;;;;;;;;5018632;28;20672;-61
2022/05/25 13:26:40;;;;;;;7.20;3.60;;;;;;;;;;5007231;28;20325;-61
2022/05/25 13:29:22;;;;;;;7.03;3.43;;;;;;;;;;4987379;28;20229;-61
2022/05/25 13:31:56;;;;;;;6.07;3.10;;;;;;;;;;5012605;28;231469;-61
2022/05/25 13:34:23;;;;;;;5.00;3.27;;;;;;;;;;4994513;28;20230;-60
2022/05/25 13:36:51;;;;;;;6.20;3.50;;;;;;;;;;5013944;28;20344;-61
2022/05/25 13:39:37;;;;;;;4.70;3.43;;;;;;;;;;5007837;28;20703;-60
2022/05/25 13:42:11;;;;;;;9.70;3.43;;;;;;;;;;5016388;28;20238;-62
2022/05/25 13:44:57;;;;;;;4.60;3.47;;;;;;;;;;4998845;28;20240;-64
2022/05/25 13:47:24;;;;;;;6.13;3.43;;;;;;;;;;5006673;28;22057;-65
2022/05/25 13:49:52;;;;;;;6.03;3.13;;;;;;;;;;5006930;28;20261;-63
2022/05/25 13:52:23;;;;;;;5.53;3.33;;;;;;;;;;5013815;28;20590;-63
2022/05/25 13:54:51;;;;;;;4.13;3.20;;;;;;;;;;5022698;28;21142;-63
2022/05/25 13:57:29;;;;;;;4.87;3.47;;;;;;;;;;4982209;28;64223;-63
2022/05/25 13:59:56;;;;;;;5.80;3.47;;;;;;;;;;5028403;28;32031;-63
2022/05/25 14:02:46;;;;;;;5.83;3.30;;;;;;;;;;4995733;28;20235;-63
2022/05/25 14:05:34;;;;;;;4.80;3.30;;;;;;;;;;5015771;28;20248;-64
2022/05/25 14:08:13;;;;;;;9.27;3.43;;;;;;;;;;5030066;28;23856;-63
2022/05/25 14:10:57;;;;;;;7.33;2.97;;;;;;;;;;5023821;28;20346;-64
2022/05/25 14:13:27;;;;;;;5.03;3.10;;;;;;;;;;5019743;28;20740;-60
2022/05/25 14:16:00;;;;;;;6.57;2.87;;;;;;;;;;5002143;28;20276;-63
2022/05/25 14:18:30;;;;;;;7.83;3.83;;;;;;;;;;4994380;28;638603;-62
2022/05/25 14:20:57;;;;;;;8.67;4.07;;;;;;;;;;5001777;28;20234;-69
2022/05/25 14:23:27;;;;;;;7.33;3.60;;;;;;;;;;5013157;28;29732;-63
2022/05/25 14:25:57;;;;;;;6.77;3.80;;;;;;;;;;4977870;28;20234;-64
2022/05/25 14:28:26;;;;;;;8.37;5.03;;;;;;;;;;5026530;28;23025;-63
2022/05/25 14:30:53;;;;;;;7.63;5.57;;;;;;;;;;5022466;28;20238;-64
2022/05/25 14:33:20;;;;;;;10.60;5.70;;;;;;;;;;5019395;28;20225;-63
2022/05/25 14:35:52;;;;;;;8.87;5.27;;;;;;;;;;5016651;28;20284;-63
2022/05/25 14:38:20;;;;;;;6.90;4.33;;;;;;;;;;5005742;28;24042;-64
2022/05/25 14:41:21;;;;;;;4.27;2.70;;;;;;;;;;5005993;28;20241;-63
2022/05/25 14:44:05;;;;;;;3.33;3.03;;;;;;;;;;5020359;28;20279;-63
2022/05/25 14:46:38;;;;;;;8.60;4.07;;;;;;;;;;5016234;28;20265;-64
2022/05/25 14:49:07;;;;;;;7.73;4.50;;;;;;;;;;5018186;28;20225;-64
2022/05/25 14:51:43;;;;;;;7.97;4.23;;;;;;;;;;5000281;28;20245;-63
2022/05/25 14:54:12;;;;;;;7.50;4.80;;;;;;;;;;4995794;28;20316;-64
2022/05/25 14:56:40;;;;;;;7.57;5.13;;;;;;;;;;4990441;28;20229;-64
2022/05/25 14:59:07;;;;;;;10.07;5.57;;;;;;;;;;5015487;28;20286;-63
2022/05/25 15:01:35;;;;;;;9.50;4.80;;;;;;;;;;5015645;28;20433;-64
2022/05/25 15:04:04;;;;;;;10.83;5.23;;;;;;;;;;5020788;28;20238;-63
2022/05/25 15:06:37;;;;;;;8.87;5.33;;;;;;;;;;4996258;28;23505;-61
2022/05/25 15:09:11;;;;;;;6.63;4.67;;;;;;;;;;5020239;28;20792;-63
2022/05/25 15:11:42;;;;;;;8.67;4.77;;;;;;;;;;5020384;28;20589;-62
2022/05/25 15:20:12;;;;;;;8.40;6.10;;;;;;;;;;5025587;28;20744;-60
2022/05/25 15:22:51;;;;;;;13.93;6.60;;;;;;;;;;5016982;28;20387;-59
2022/05/25 15:25:39;;;;;;;10.00;5.63;;;;;;;;;;5008730;28;20225;-60
2022/05/25 15:28:12;;;;;;;9.50;5.13;;;;;;;;;;4997389;28;20685;-60
2022/05/25 15:30:39;;;;;;;6.50;5.17;;;;;;;;;;5003731;28;20238;-60
2022/05/25 15:33:06;;;;;;;8.43;4.60;;;;;;;;;;5028773;28;27455;-61
2022/05/25 15:35:35;;;;;;;7.93;5.60;;;;;;;;;;5020265;28;20304;-60
2022/05/25 15:38:04;;;;;;;6.73;4.93;;;;;;;;;;5014646;28;20239;-60
2022/05/25 15:40:41;;;;;;;9.20;5.50;;;;;;;;;;5018399;28;20320;-60